Time;durP1;ratioP1;P1;durP2;ratioP2;P2;SDS_P1;SDS_P2;PMS_P1;PMS_P2;Temp;Humidity;BMP_temperature;BMP_pressure;BME280_temperature;BME280_humidity;BME280_pressure;Samples;Min_cycle;Max_cycle;Signal;HPM_P1;HPM_P2
2023/08/03 00:00:58;;;;;;;9.10;2.20;;;17.10;99.90;;;;;;452296;263;29428;-82
2023/08/03 00:03:00;;;;;;;4.90;1.53;;;17.10;99.90;;;;;;452200;263;29342;-80
2023/08/03 00:05:01;;;;;;;6.00;2.30;;;17.20;99.90;;;;;;452335;263;28824;-84
2023/08/03 00:07:02;;;;;;;4.90;1.70;;;17.10;99.90;;;;;;452117;263;28889;-83
2023/08/03 00:09:03;;;;;;;5.67;2.03;;;17.10;99.90;;;;;;452281;263;28831;-83
2023/08/03 00:11:05;;;;;;;5.80;1.80;;;17.10;99.90;;;;;;452215;263;28899;-84
2023/08/03 00:13:06;;;;;;;4.77;1.83;;;17.10;99.90;;;;;;452201;263;28907;-82
2023/08/03 00:15:07;;;;;;;6.93;2.07;;;17.10;99.90;;;;;;452280;263;28904;-80
2023/08/03 00:17:08;;;;;;;8.73;1.70;;;17.10;99.90;;;;;;452218;263;28826;-84
2023/08/03 00:19:10;;;;;;;12.33;2.40;;;17.10;99.90;;;;;;452103;263;28846;-80
2023/08/03 00:21:11;;;;;;;5.63;1.83;;;17.00;99.90;;;;;;452235;263;28914;-82
2023/08/03 00:23:12;;;;;;;8.53;2.00;;;17.00;99.90;;;;;;452207;263;29303;-82
2023/08/03 00:25:13;;;;;;;8.30;2.60;;;17.00;99.90;;;;;;452204;263;29447;-81
2023/08/03 00:27:15;;;;;;;7.63;2.10;;;17.00;99.90;;;;;;452257;262;29325;-80
2023/08/03 00:29:16;;;;;;;13.20;1.80;;;17.00;99.90;;;;;;452149;263;28970;-82
2023/08/03 00:31:17;;;;;;;5.73;2.10;;;17.00;99.90;;;;;;452124;263;28902;-86
2023/08/03 00:33:18;;;;;;;4.87;1.77;;;17.00;99.90;;;;;;452338;263;28917;-81
2023/08/03 00:35:20;;;;;;;13.73;2.10;;;16.80;99.90;;;;;;452495;263;28856;-81
2023/08/03 00:37:21;;;;;;;11.20;2.30;;;16.70;99.90;;;;;;452457;263;28924;-80
2023/08/03 00:39:23;;;;;;;7.90;1.80;;;16.60;99.90;;;;;;452534;263;28937;-81
2023/08/03 00:41:23;;;;;;;9.00;2.00;;;16.50;99.90;;;;;;452500;263;28903;-82
2023/08/03 00:43:25;;;;;;;5.00;2.23;;;16.50;99.90;;;;;;452016;263;28832;-83
2023/08/03 00:45:26;;;;;;;6.27;1.73;;;16.50;99.90;;;;;;452245;263;29359;-81
2023/08/03 00:47:27;;;;;;;7.30;2.13;;;16.50;99.90;;;;;;452497;263;29285;-83
2023/08/03 00:49:29;;;;;;;7.87;2.47;;;16.40;99.90;;;;;;452552;263;29411;-81
2023/08/03 00:51:30;;;;;;;12.00;2.70;;;16.40;99.90;;;;;;452533;263;29092;-83
2023/08/03 00:53:31;;;;;;;8.53;2.20;;;16.30;99.90;;;;;;452506;263;28908;-82
2023/08/03 00:55:32;;;;;;;10.43;1.93;;;16.30;99.90;;;;;;452498;263;28887;-81
2023/08/03 00:57:33;;;;;;;5.10;1.70;;;16.30;99.90;;;;;;452416;263;28830;-77
2023/08/03 00:59:35;;;;;;;5.13;2.20;;;16.30;99.90;;;;;;452245;263;28859;-81
2023/08/03 01:01:36;;;;;;;6.30;2.10;;;16.30;99.90;;;;;;452510;263;29232;-82
2023/08/03 01:03:37;;;;;;;5.13;1.87;;;16.20;99.90;;;;;;452410;263;28841;-82
2023/08/03 01:05:38;;;;;;;3.40;1.60;;;16.20;99.90;;;;;;452458;263;28939;-81
2023/08/03 01:07:40;;;;;;;6.87;2.10;;;16.20;99.90;;;;;;452321;263;28831;-81
2023/08/03 01:09:41;;;;;;;7.33;2.00;;;16.00;99.90;;;;;;452631;263;29385;-82
2023/08/03 01:11:43;;;;;;;4.80;1.60;;;15.80;99.90;;;;;;452544;262;29618;-79
2023/08/03 01:13:43;;;;;;;4.10;1.43;;;15.80;99.90;;;;;;452662;263;29306;-80
2023/08/03 01:15:45;;;;;;;6.17;1.50;;;15.80;99.90;;;;;;452616;263;28857;-80
2023/08/03 01:17:46;;;;;;;7.13;1.90;;;15.80;99.90;;;;;;452346;263;28792;-84
2023/08/03 01:19:47;;;;;;;7.50;2.13;;;15.80;99.90;;;;;;452614;263;28866;-80
2023/08/03 01:21:48;;;;;;;6.97;1.80;;;15.70;99.90;;;;;;452496;263;28814;-80
2023/08/03 01:23:50;;;;;;;7.87;1.80;;;15.70;99.90;;;;;;452692;263;28827;-81
2023/08/03 01:25:51;;;;;;;3.77;1.80;;;15.70;99.90;;;;;;452682;263;28853;-80
2023/08/03 01:27:52;;;;;;;5.77;1.83;;;15.80;99.90;;;;;;452622;263;28842;-82
2023/08/03 01:29:53;;;;;;;2.93;1.70;;;15.80;99.90;;;;;;452572;263;28854;-78
2023/08/03 01:31:56;;;;;;;8.23;1.67;;;15.80;99.90;;;;;;452640;263;29388;-80
2023/08/03 01:33:57;;;;;;;5.30;2.17;;;15.80;99.90;;;;;;452431;263;29411;-81
2023/08/03 01:35:57;;;;;;;4.70;1.50;;;15.80;99.90;;;;;;452639;263;29301;-81
2023/08/03 01:37:58;;;;;;;2.83;1.57;;;15.90;99.90;;;;;;452600;263;28788;-82
2023/08/03 01:40:00;;;;;;;6.30;1.63;;;15.90;99.90;;;;;;452470;263;28806;-80
2023/08/03 01:42:01;;;;;;;5.53;1.73;;;15.90;99.90;;;;;;452619;263;28819;-77
2023/08/03 01:44:02;;;;;;;4.63;1.87;;;15.90;99.90;;;;;;452567;263;28834;-77
2023/08/03 01:46:05;;;;;;;4.03;1.60;;;15.90;99.90;;;;;;452574;260;28867;-79
2023/08/03 01:48:05;;;;;;;5.73;1.37;;;15.90;99.90;;;;;;452377;263;28814;-80
2023/08/03 01:50:06;;;;;;;5.20;1.60;;;16.00;99.90;;;;;;452391;263;28853;-80
2023/08/03 01:52:07;;;;;;;10.40;2.33;;;16.00;99.90;;;;;;452384;263;29237;-82
2023/08/03 01:54:08;;;;;;;6.77;1.73;;;16.00;99.90;;;;;;452599;263;28898;-83
2023/08/03 01:56:10;;;;;;;4.50;1.63;;;16.00;99.90;;;;;;452578;263;29552;-77
2023/08/03 01:58:12;;;;;;;7.60;2.03;;;15.90;99.90;;;;;;452594;263;30193;-78
2023/08/03 02:00:12;;;;;;;4.87;1.60;;;15.80;99.90;;;;;;452595;257;29842;-82
2023/08/03 02:02:13;;;;;;;6.87;1.70;;;15.80;99.90;;;;;;452688;263;29297;-80
2023/08/03 02:04:15;;;;;;;4.83;1.77;;;15.70;99.90;;;;;;452654;263;28853;-83
2023/08/03 02:06:16;;;;;;;6.67;1.90;;;15.60;99.90;;;;;;452700;257;28899;-81
2023/08/03 02:08:17;;;;;;;4.47;1.93;;;15.60;99.90;;;;;;452691;257;28799;-82
2023/08/03 02:10:18;;;;;;;5.63;1.63;;;15.50;99.90;;;;;;452606;263;28907;-77
2023/08/03 02:12:20;;;;;;;7.90;1.80;;;15.60;99.90;;;;;;452511;256;28887;-80
2023/08/03 02:14:21;;;;;;;6.27;2.00;;;15.50;99.90;;;;;;467151;236;30590;-78
2023/08/03 02:16:22;;;;;;;5.30;1.93;;;15.50;99.90;;;;;;487482;244;28801;-80
2023/08/03 02:18:23;;;;;;;9.20;1.80;;;15.40;99.90;;;;;;487549;244;28764;-81
2023/08/03 02:20:25;;;;;;;9.57;1.90;;;15.20;99.90;;;;;;487649;244;28813;-82
2023/08/03 02:22:26;;;;;;;11.20;2.10;;;15.20;99.90;;;;;;487563;244;29464;-81
2023/08/03 02:24:27;;;;;;;7.63;2.20;;;15.10;99.90;;;;;;487558;244;29516;-83
2023/08/03 02:26:28;;;;;;;6.53;1.57;;;15.00;99.90;;;;;;487534;244;28812;-82
2023/08/03 02:28:30;;;;;;;20.53;2.17;;;15.00;99.90;;;;;;487485;244;28881;-81
2023/08/03 02:30:31;;;;;;;4.53;1.47;;;14.90;99.90;;;;;;487461;244;28812;-80
2023/08/03 02:32:32;;;;;;;9.43;1.87;;;15.00;99.90;;;;;;487427;244;28828;-78
2023/08/03 02:34:33;;;;;;;9.83;2.20;;;15.00;99.90;;;;;;487543;244;28831;-80
2023/08/03 02:36:35;;;;;;;7.60;2.10;;;15.00;99.90;;;;;;487546;244;28798;-78
2023/08/03 02:38:36;;;;;;;3.33;1.60;;;15.00;99.90;;;;;;487552;244;28871;-79
2023/08/03 02:40:37;;;;;;;3.17;1.70;;;15.00;99.90;;;;;;487534;244;28900;-79
2023/08/03 02:42:38;;;;;;;5.33;2.07;;;15.10;99.90;;;;;;487542;244;28773;-79
2023/08/03 02:44:40;;;;;;;9.63;2.03;;;15.00;99.90;;;;;;487538;244;28855;-80
2023/08/03 02:46:41;;;;;;;7.33;2.17;;;15.00;99.90;;;;;;487609;244;29279;-80
2023/08/03 02:48:42;;;;;;;10.30;2.40;;;15.00;99.90;;;;;;487609;244;29415;-78
2023/08/03 02:50:43;;;;;;;8.30;2.10;;;15.00;99.90;;;;;;487552;244;28812;-79
2023/08/03 02:52:45;;;;;;;5.13;1.70;;;15.00;99.90;;;;;;487616;244;28879;-80
2023/08/03 02:54:46;;;;;;;9.77;1.90;;;15.00;99.90;;;;;;487539;244;28778;-81
2023/08/03 02:56:47;;;;;;;7.27;2.20;;;15.00;99.90;;;;;;487626;244;28934;-79
2023/08/03 02:58:48;;;;;;;3.90;1.60;;;15.00;99.90;;;;;;487580;244;28787;-81
2023/08/03 03:00:50;;;;;;;7.40;2.00;;;15.10;99.90;;;;;;487598;244;28800;-81
2023/08/03 03:02:51;;;;;;;5.07;1.60;;;15.10;99.90;;;;;;487473;244;28812;-81
2023/08/03 03:04:52;;;;;;;9.63;1.90;;;15.20;99.90;;;;;;487560;244;28783;-81
2023/08/03 03:06:53;;;;;;;8.50;1.73;;;15.10;99.90;;;;;;487504;244;28807;-81
2023/08/03 03:08:55;;;;;;;5.47;1.97;;;15.10;99.90;;;;;;487625;244;28784;-82
2023/08/03 03:10:56;;;;;;;6.77;2.10;;;15.10;99.90;;;;;;487626;244;29460;-83
2023/08/03 03:12:57;;;;;;;8.33;2.40;;;15.20;99.90;;;;;;487500;244;29408;-79
2023/08/03 03:14:58;;;;;;;5.87;2.10;;;15.20;99.90;;;;;;487416;244;28776;-77
2023/08/03 03:17:00;;;;;;;9.43;1.80;;;15.30;99.90;;;;;;487533;244;28881;-80
2023/08/03 03:19:01;;;;;;;4.30;1.50;;;15.30;99.90;;;;;;487385;244;28891;-79
2023/08/03 03:21:02;;;;;;;4.87;1.80;;;15.30;99.90;;;;;;487473;244;28863;-80
2023/08/03 03:23:04;;;;;;;6.47;1.90;;;15.40;99.90;;;;;;487411;244;28782;-79
2023/08/03 03:25:05;;;;;;;4.70;1.90;;;15.40;99.90;;;;;;487500;244;29239;-80
2023/08/03 03:27:06;;;;;;;3.70;1.33;;;15.40;99.90;;;;;;487632;244;28811;-83
2023/08/03 03:29:07;;;;;;;5.00;1.70;;;15.40;99.90;;;;;;486512;235;28821;-81
2023/08/03 03:31:09;;;;;;;7.60;1.70;;;15.40;99.90;;;;;;483360;235;28534;-79
2023/08/03 03:33:10;;;;;;;4.73;2.00;;;15.40;99.90;;;;;;479615;244;28908;-78
2023/08/03 03:35:11;;;;;;;6.40;1.53;;;15.40;99.90;;;;;;479700;244;29537;-82
2023/08/03 03:37:12;;;;;;;4.43;1.83;;;15.40;99.90;;;;;;474432;246;29275;-79
2023/08/03 03:39:14;;;;;;;5.23;1.83;;;15.40;99.90;;;;;;474467;251;29373;-79
2023/08/03 03:41:15;;;;;;;7.37;1.80;;;15.40;99.90;;;;;;474363;246;28854;-76
2023/08/03 03:43:16;;;;;;;4.83;1.40;;;15.40;99.90;;;;;;474542;246;28791;-77
2023/08/03 03:45:18;;;;;;;5.17;1.80;;;15.40;99.90;;;;;;474546;246;28920;-79
2023/08/03 03:47:19;;;;;;;3.90;1.63;;;15.40;99.90;;;;;;474530;246;28856;-83
2023/08/03 03:49:20;;;;;;;2.97;1.30;;;15.30;99.90;;;;;;474080;251;29228;-79
2023/08/03 03:51:21;;;;;;;8.00;2.27;;;15.30;99.90;;;;;;474527;248;28775;-83
2023/08/03 03:53:22;;;;;;;8.60;1.70;;;15.30;99.90;;;;;;474486;248;28796;-81
2023/08/03 03:55:24;;;;;;;5.40;1.50;;;15.40;99.90;;;;;;474501;246;28816;-78
2023/08/03 03:57:25;;;;;;;6.93;1.80;;;15.40;99.90;;;;;;474577;248;28897;-80
2023/08/03 03:59:26;;;;;;;6.77;2.10;;;15.40;99.90;;;;;;474447;246;29561;-80
2023/08/03 04:01:27;;;;;;;8.70;2.00;;;15.40;99.90;;;;;;474554;248;29327;-76
2023/08/03 04:03:29;;;;;;;10.00;2.30;;;15.30;99.90;;;;;;474289;248;29361;-80
2023/08/03 04:07:36;;;;;;;7.90;2.10;;;15.40;99.90;;;;;;478549;249;28909;-78
2023/08/03 04:09:37;;;;;;;5.87;1.97;;;15.40;99.90;;;;;;485924;245;29442;-81
2023/08/03 04:11:38;;;;;;;4.63;1.90;;;15.40;99.90;;;;;;486044;245;28816;-84
2023/08/03 04:13:39;;;;;;;8.43;2.07;;;15.30;99.90;;;;;;485992;245;28805;-82
2023/08/03 04:15:41;;;;;;;3.67;1.90;;;15.30;99.90;;;;;;485081;235;28885;-78
2023/08/03 04:17:45;;;;;;;3.93;1.83;;;15.30;99.90;;;;;;486152;245;28806;-81
2023/08/03 04:19:43;;;;;;;4.60;1.90;;;15.30;99.90;;;;;;477181;247;28903;-79
2023/08/03 04:21:44;;;;;;;6.13;2.10;;;15.30;99.90;;;;;;479456;240;30137;-80
2023/08/03 04:23:46;;;;;;;8.63;1.97;;;15.30;99.90;;;;;;494337;240;29394;-80
2023/08/03 04:25:47;;;;;;;5.70;2.17;;;15.30;99.90;;;;;;485895;245;29332;-78
2023/08/03 04:27:48;;;;;;;6.63;1.70;;;15.30;99.90;;;;;;485917;245;28689;-80
2023/08/03 04:29:49;;;;;;;7.53;2.23;;;15.10;99.90;;;;;;485967;245;28685;-79
2023/08/03 04:31:51;;;;;;;6.37;1.97;;;15.10;99.90;;;;;;485992;245;28706;-78
2023/08/03 04:33:52;;;;;;;10.50;2.20;;;15.00;99.90;;;;;;485948;245;28674;-81
2023/08/03 04:35:53;;;;;;;7.70;2.00;;;15.00;99.90;;;;;;485871;245;28821;-77
2023/08/03 04:37:54;;;;;;;6.17;2.00;;;14.80;99.90;;;;;;485882;245;28821;-83
2023/08/03 04:39:56;;;;;;;5.87;1.83;;;14.80;99.90;;;;;;485935;245;28752;-82
2023/08/03 04:41:57;;;;;;;5.23;2.00;;;14.80;99.90;;;;;;485878;245;28713;-83
2023/08/03 04:43:58;;;;;;;3.23;1.40;;;14.80;99.90;;;;;;485883;245;28833;-82
2023/08/03 04:45:59;;;;;;;3.97;1.73;;;14.80;99.90;;;;;;485806;245;29302;-81
2023/08/03 04:48:01;;;;;;;7.57;2.30;;;14.70;99.90;;;;;;485817;245;29163;-80
2023/08/03 04:50:02;;;;;;;6.30;2.23;;;14.70;99.90;;;;;;485786;245;29251;-80
2023/08/03 04:52:03;;;;;;;8.00;2.00;;;14.70;99.90;;;;;;485830;245;28753;-81
2023/08/03 04:54:04;;;;;;;5.53;2.13;;;14.60;99.90;;;;;;485842;245;28733;-82
2023/08/03 04:56:06;;;;;;;6.00;2.33;;;14.70;99.90;;;;;;485679;245;28705;-82
2023/08/03 04:58:07;;;;;;;4.93;2.03;;;14.70;99.90;;;;;;485828;245;28688;-81
2023/08/03 05:00:08;;;;;;;7.23;1.90;;;14.70;99.90;;;;;;485738;245;28401;-82
2023/08/03 05:02:09;;;;;;;11.67;2.70;;;14.60;99.90;;;;;;485659;245;28721;-83
2023/08/03 05:04:11;;;;;;;8.33;2.50;;;14.60;99.90;;;;;;485554;245;28797;-82
2023/08/03 05:06:12;;;;;;;8.17;2.70;;;14.60;99.90;;;;;;485726;245;28505;-80
2023/08/03 05:08:13;;;;;;;5.50;2.10;;;14.50;99.90;;;;;;485821;245;28713;-81
2023/08/03 05:10:14;;;;;;;5.30;2.00;;;14.50;99.90;;;;;;485777;245;29235;-80
2023/08/03 05:12:16;;;;;;;7.93;2.30;;;14.50;99.90;;;;;;485821;245;29343;-80
2023/08/03 05:14:17;;;;;;;6.40;2.57;;;14.60;99.90;;;;;;485864;245;29360;-79
2023/08/03 05:16:24;;;;;;;8.40;2.53;;;14.60;99.90;;;;;;485875;245;28766;-79
2023/08/03 05:18:19;;;;;;;5.37;1.83;;;14.60;99.90;;;;;;485513;245;28776;-81
2023/08/03 05:20:21;;;;;;;7.00;2.17;;;14.60;99.90;;;;;;485893;245;28737;-78
2023/08/03 05:22:22;;;;;;;8.80;1.97;;;14.60;99.90;;;;;;485845;245;28685;-81
2023/08/03 05:24:23;;;;;;;7.70;2.23;;;14.60;99.90;;;;;;485756;245;28946;-83
2023/08/03 05:26:26;;;;;;;7.53;2.00;;;14.50;99.90;;;;;;485750;245;28752;-80
2023/08/03 05:28:26;;;;;;;5.23;1.90;;;14.50;99.90;;;;;;485628;245;28806;-81
2023/08/03 05:30:27;;;;;;;9.23;2.90;;;14.50;99.90;;;;;;485806;245;28753;-79
2023/08/03 05:32:28;;;;;;;7.30;2.30;;;14.60;99.90;;;;;;485767;245;28719;-81
2023/08/03 05:34:29;;;;;;;4.80;2.27;;;14.60;99.90;;;;;;485775;245;29382;-79
2023/08/03 05:36:31;;;;;;;6.60;2.10;;;14.60;99.90;;;;;;485820;245;29181;-81
2023/08/03 05:38:32;;;;;;;3.87;1.80;;;14.60;99.90;;;;;;485814;245;29343;-81
2023/08/03 05:40:33;;;;;;;7.97;2.60;;;14.60;99.90;;;;;;485782;245;28727;-78
2023/08/03 05:42:34;;;;;;;7.63;2.00;;;14.60;99.90;;;;;;485705;245;28733;-79
2023/08/03 05:44:36;;;;;;;9.00;2.23;;;14.60;99.90;;;;;;485780;245;28411;-81
2023/08/03 05:46:37;;;;;;;6.37;2.13;;;14.50;99.90;;;;;;485791;245;28409;-79
2023/08/03 05:48:38;;;;;;;6.03;2.40;;;14.50;99.90;;;;;;485935;245;28689;-80
2023/08/03 05:50:39;;;;;;;8.43;2.00;;;14.50;99.90;;;;;;485878;245;28716;-79
2023/08/03 05:52:41;;;;;;;10.13;2.20;;;14.50;99.90;;;;;;485815;245;28792;-82
2023/08/03 05:54:42;;;;;;;7.37;2.00;;;14.50;99.90;;;;;;485857;245;28877;-83
2023/08/03 05:56:43;;;;;;;7.60;2.27;;;14.50;99.90;;;;;;485877;245;28291;-80
2023/08/03 05:58:44;;;;;;;10.17;2.77;;;14.50;99.90;;;;;;485721;245;29315;-80
2023/08/03 06:00:46;;;;;;;7.33;2.40;;;14.60;99.90;;;;;;485867;245;29184;-81
2023/08/03 06:02:47;;;;;;;10.27;3.00;;;14.60;99.90;;;;;;485819;245;29240;-82
2023/08/03 06:04:48;;;;;;;5.43;2.20;;;14.50;99.90;;;;;;485825;245;28784;-82
2023/08/03 06:06:49;;;;;;;10.47;2.60;;;14.60;99.90;;;;;;485825;245;28669;-80
2023/08/03 06:08:51;;;;;;;10.07;2.67;;;14.60;99.90;;;;;;485851;245;28812;-80
2023/08/03 06:10:52;;;;;;;3.83;1.90;;;14.70;99.90;;;;;;485865;245;28706;-82
2023/08/03 06:12:53;;;;;;;9.67;2.70;;;14.60;99.90;;;;;;485877;245;28794;-78
2023/08/03 06:14:54;;;;;;;5.83;2.30;;;14.60;99.90;;;;;;485896;245;28837;-81
2023/08/03 06:16:56;;;;;;;5.87;2.10;;;14.70;99.90;;;;;;485867;245;28697;-82
2023/08/03 06:18:59;;;;;;;6.60;2.10;;;14.70;99.90;;;;;;485877;245;28720;-81
2023/08/03 06:20:58;;;;;;;6.40;2.50;;;14.70;99.90;;;;;;485711;245;29267;-82
2023/08/03 06:22:59;;;;;;;8.63;2.53;;;14.70;99.90;;;;;;488140;241;29399;-77
2023/08/03 06:25:01;;;;;;;4.90;2.20;;;14.70;99.90;;;;;;494646;241;29348;-82
2023/08/03 06:27:02;;;;;;;7.47;2.23;;;14.70;99.90;;;;;;494552;240;28788;-81
2023/08/03 06:29:05;;;;;;;4.47;1.93;;;14.70;99.90;;;;;;494708;241;29007;-80
2023/08/03 06:31:04;;;;;;;6.60;2.30;;;14.60;99.90;;;;;;494642;241;28844;-79
2023/08/03 06:33:06;;;;;;;8.80;2.40;;;14.70;99.90;;;;;;494695;241;28787;-83
2023/08/03 06:35:07;;;;;;;8.70;2.70;;;14.70;99.90;;;;;;494688;241;28794;-80
2023/08/03 06:37:08;;;;;;;7.70;2.33;;;14.70;99.90;;;;;;494643;241;28791;-80
2023/08/03 06:39:09;;;;;;;12.70;2.37;;;14.70;99.90;;;;;;494675;241;28827;-79
2023/08/03 06:41:11;;;;;;;12.50;3.33;;;14.70;99.90;;;;;;494649;241;28802;-84
2023/08/03 06:43:13;;;;;;;9.00;2.40;;;14.80;99.90;;;;;;494664;240;28901;-81
2023/08/03 06:45:13;;;;;;;7.23;2.43;;;14.80;99.90;;;;;;494652;241;29446;-81
2023/08/03 06:47:15;;;;;;;9.20;2.67;;;14.80;99.90;;;;;;494687;241;29349;-82
2023/08/03 06:49:16;;;;;;;5.93;2.10;;;14.80;99.90;;;;;;494703;241;29489;-82
2023/08/03 06:51:17;;;;;;;7.00;2.20;;;14.80;99.90;;;;;;494720;241;28816;-83
2023/08/03 06:53:18;;;;;;;7.70;2.50;;;14.70;99.90;;;;;;494645;241;28855;-83
2023/08/03 06:55:19;;;;;;;15.57;3.00;;;14.70;99.90;;;;;;494663;241;28788;-81
2023/08/03 06:57:21;;;;;;;8.83;2.60;;;14.80;99.90;;;;;;494605;241;28804;-82
2023/08/03 06:59:22;;;;;;;9.13;2.03;;;14.80;99.90;;;;;;494662;241;28800;-79
2023/08/03 07:01:23;;;;;;;6.47;2.13;;;14.80;99.90;;;;;;494601;241;28895;-82
2023/08/03 07:03:25;;;;;;;6.13;2.13;;;14.80;99.90;;;;;;494651;241;28871;-82
2023/08/03 07:05:26;;;;;;;7.63;1.93;;;14.80;99.90;;;;;;494668;241;28839;-83
2023/08/03 07:07:27;;;;;;;4.43;2.00;;;14.70;99.90;;;;;;494619;240;28794;-80
2023/08/03 07:09:28;;;;;;;6.60;1.93;;;14.80;99.90;;;;;;494672;241;29335;-82
2023/08/03 07:11:31;;;;;;;9.67;2.53;;;14.70;99.90;;;;;;494547;241;29350;-85
2023/08/03 07:13:31;;;;;;;13.20;2.47;;;14.70;99.90;;;;;;494697;241;29370;-82
2023/08/03 07:15:33;;;;;;;7.20;2.20;;;14.80;99.90;;;;;;494630;241;28783;-83
2023/08/03 07:17:33;;;;;;;13.07;2.70;;;14.80;99.90;;;;;;494604;241;28905;-84
2023/08/03 07:19:35;;;;;;;6.60;2.40;;;14.80;99.90;;;;;;494600;241;28906;-82
2023/08/03 07:21:36;;;;;;;4.47;2.00;;;14.70;99.90;;;;;;494719;241;28799;-80
2023/08/03 07:23:37;;;;;;;11.27;2.53;;;14.80;99.90;;;;;;494633;241;28791;-82
2023/08/03 07:25:39;;;;;;;8.20;2.40;;;14.70;99.90;;;;;;494676;241;28812;-84
2023/08/03 07:27:41;;;;;;;6.27;2.00;;;14.70;99.90;;;;;;494629;241;28882;-83
2023/08/03 07:29:41;;;;;;;10.03;2.10;;;14.70;99.90;;;;;;494660;241;28796;-80
2023/08/03 07:31:42;;;;;;;10.23;2.53;;;14.70;99.90;;;;;;494723;241;29377;-85
2023/08/03 07:33:43;;;;;;;7.97;2.43;;;14.80;99.90;;;;;;494766;240;29317;-81
2023/08/03 07:35:45;;;;;;;9.17;2.47;;;14.70;99.90;;;;;;494534;240;28866;-79
2023/08/03 07:37:46;;;;;;;6.73;2.10;;;14.70;99.90;;;;;;494651;241;28783;-85
2023/08/03 07:39:47;;;;;;;8.53;2.60;;;14.80;99.90;;;;;;494587;240;28890;-80
2023/08/03 07:41:48;;;;;;;6.23;1.97;;;14.90;99.90;;;;;;494620;241;28907;-80
2023/08/03 07:43:50;;;;;;;12.83;2.60;;;14.90;99.90;;;;;;494642;241;28803;-80
2023/08/03 07:45:51;;;;;;;5.40;2.20;;;14.90;99.90;;;;;;494614;241;28659;-81
2023/08/03 07:47:52;;;;;;;9.97;2.60;;;14.90;99.90;;;;;;494616;241;28802;-81
2023/08/03 07:49:53;;;;;;;9.40;2.47;;;14.90;99.90;;;;;;494611;241;28827;-81
2023/08/03 07:51:55;;;;;;;7.90;2.27;;;14.90;99.90;;;;;;494515;241;28900;-83
2023/08/03 07:53:56;;;;;;;8.67;2.67;;;14.80;99.90;;;;;;494548;241;29316;-82
2023/08/03 07:55:57;;;;;;;9.20;2.60;;;14.90;99.90;;;;;;494527;241;29318;-80
2023/08/03 07:57:58;;;;;;;5.50;2.10;;;14.90;99.90;;;;;;494622;241;29252;-81
2023/08/03 08:00:00;;;;;;;9.70;2.20;;;14.80;99.90;;;;;;494624;241;28901;-80
2023/08/03 08:02:01;;;;;;;10.30;2.10;;;14.90;99.90;;;;;;494613;241;28890;-81
2023/08/03 08:04:02;;;;;;;6.57;2.27;;;14.80;99.90;;;;;;494096;241;28819;-82
2023/08/03 08:06:03;;;;;;;5.87;1.97;;;14.90;99.90;;;;;;494308;241;28965;-80
2023/08/03 08:08:05;;;;;;;3.93;2.00;;;14.90;99.90;;;;;;494612;241;28913;-78
2023/08/03 08:10:06;;;;;;;5.00;2.40;;;15.00;99.90;;;;;;494446;241;28842;-81
2023/08/03 08:12:07;;;;;;;8.93;2.80;;;15.00;99.90;;;;;;494605;241;28784;-81
2023/08/03 08:14:08;;;;;;;8.00;2.40;;;15.00;99.90;;;;;;494585;240;28846;-81
2023/08/03 08:16:10;;;;;;;13.17;2.60;;;14.90;99.90;;;;;;494720;241;28778;-82
2023/08/03 08:18:11;;;;;;;6.07;2.03;;;14.90;99.90;;;;;;494731;241;29342;-82
2023/08/03 08:20:12;;;;;;;9.60;2.73;;;14.90;99.90;;;;;;494754;241;29292;-81
2023/08/03 08:22:14;;;;;;;4.93;2.10;;;14.80;99.90;;;;;;494710;241;29740;-82
2023/08/03 08:24:15;;;;;;;7.57;2.43;;;14.90;99.90;;;;;;494605;241;28826;-83
2023/08/03 08:26:16;;;;;;;6.03;2.03;;;14.90;99.90;;;;;;494692;241;28807;-78
2023/08/03 08:28:17;;;;;;;11.30;2.20;;;15.00;99.90;;;;;;494623;241;28802;-80
2023/08/03 08:30:18;;;;;;;5.20;1.97;;;14.90;99.90;;;;;;494704;241;28858;-81
2023/08/03 08:32:20;;;;;;;4.40;1.90;;;15.00;99.90;;;;;;494714;241;28796;-81
2023/08/03 08:34:21;;;;;;;5.27;1.97;;;15.10;99.90;;;;;;494698;241;28858;-82
2023/08/03 08:38:28;;;;;;;5.70;2.50;;;15.20;99.90;;;;;;476936;250;28813;-79
2023/08/03 08:40:29;;;;;;;5.20;2.33;;;15.30;99.90;;;;;;476967;249;29298;-83
2023/08/03 08:42:30;;;;;;;10.03;1.97;;;15.30;99.90;;;;;;476797;249;29317;-79
2023/08/03 08:44:32;;;;;;;8.17;2.40;;;15.30;99.90;;;;;;476945;249;28759;-80
2023/08/03 08:46:33;;;;;;;3.30;1.60;;;15.20;99.90;;;;;;476962;250;28745;-79
2023/08/03 08:48:35;;;;;;;6.13;1.90;;;15.20;99.90;;;;;;476982;250;28749;-79
2023/08/03 08:50:35;;;;;;;8.70;2.40;;;15.10;99.90;;;;;;476903;249;28754;-78
2023/08/03 08:52:37;;;;;;;6.80;1.97;;;15.20;99.90;;;;;;476940;250;28848;-82
2023/08/03 08:54:38;;;;;;;4.13;1.70;;;15.20;99.90;;;;;;476831;249;28864;-81
2023/08/03 08:56:39;;;;;;;5.83;1.60;;;15.10;99.90;;;;;;476900;249;28758;-81
2023/08/03 08:58:40;;;;;;;6.10;1.87;;;15.10;99.90;;;;;;476919;249;28762;-79
2023/08/03 09:00:43;;;;;;;8.47;1.80;;;15.10;99.90;;;;;;476895;249;28745;-81
2023/08/03 09:02:43;;;;;;;3.40;1.97;;;15.10;99.90;;;;;;476878;250;28750;-83
2023/08/03 09:04:44;;;;;;;4.93;1.70;;;15.20;99.90;;;;;;476932;249;29217;-80
2023/08/03 09:06:45;;;;;;;5.23;1.90;;;15.20;99.90;;;;;;476983;249;29475;-84
2023/08/03 09:08:47;;;;;;;3.77;1.73;;;15.30;99.90;;;;;;476797;250;28923;-82
2023/08/03 09:10:48;;;;;;;4.70;1.50;;;15.30;99.90;;;;;;476957;249;28756;-84
2023/08/03 09:12:49;;;;;;;2.80;1.23;;;15.40;99.90;;;;;;476663;250;28844;-81
2023/08/03 09:14:50;;;;;;;11.13;2.23;;;15.40;99.90;;;;;;476959;249;28818;-80
2023/08/03 09:16:52;;;;;;;8.43;2.03;;;15.60;99.90;;;;;;476621;250;28757;-78
2023/08/03 09:18:53;;;;;;;2.37;1.20;;;15.70;99.90;;;;;;476958;249;28754;-79
2023/08/03 09:20:54;;;;;;;9.60;5.70;;;15.80;99.90;;;;;;476970;249;28753;-83
2023/08/03 09:22:55;;;;;;;4.07;2.07;;;15.80;99.90;;;;;;476939;249;28791;-82
2023/08/03 09:24:57;;;;;;;3.67;2.00;;;15.80;99.90;;;;;;476934;249;28785;-80
2023/08/03 09:26:58;;;;;;;4.47;2.23;;;15.80;99.90;;;;;;476368;250;29216;-79
2023/08/03 09:28:59;;;;;;;3.33;1.80;;;15.80;99.90;;;;;;476929;249;29332;-81
2023/08/03 09:31:00;;;;;;;2.30;1.37;;;15.80;99.90;;;;;;476853;250;29434;-82
2023/08/03 09:33:02;;;;;;;3.40;1.30;;;15.90;99.90;;;;;;476841;250;28778;-80
2023/08/03 09:35:03;;;;;;;2.27;1.50;;;15.70;99.90;;;;;;476885;249;28708;-82
2023/08/03 09:37:04;;;;;;;4.90;1.60;;;15.80;99.90;;;;;;476630;250;28797;-81
2023/08/03 09:39:05;;;;;;;3.10;1.70;;;16.00;99.90;;;;;;476999;249;28857;-82
2023/08/03 09:41:08;;;;;;;3.70;1.63;;;15.80;99.90;;;;;;476776;250;28742;-82
2023/08/03 09:43:08;;;;;;;4.03;1.70;;;16.00;99.90;;;;;;476849;250;28840;-80
2023/08/03 09:45:10;;;;;;;1.20;1.07;;;16.00;99.90;;;;;;476724;250;28730;-80
2023/08/03 09:47:10;;;;;;;4.33;1.23;;;16.00;99.90;;;;;;476949;249;28807;-81
2023/08/03 09:49:12;;;;;;;2.10;1.37;;;16.00;99.90;;;;;;478618;240;28975;-81
2023/08/03 09:51:13;;;;;;;1.53;1.10;;;16.10;99.90;;;;;;478412;249;29441;-82
2023/08/03 09:53:14;;;;;;;2.53;1.40;;;16.30;99.90;;;;;;478465;249;29532;-81
2023/08/03 09:55:20;;;;;;;2.57;1.53;;;16.30;99.90;;;;;;478520;249;29522;-79
2023/08/03 09:57:20;;;;;;;1.97;1.30;;;16.20;99.90;;;;;;478193;249;28909;-80
2023/08/03 09:59:22;;;;;;;3.23;1.50;;;16.20;99.90;;;;;;478402;245;28986;-82
2023/08/03 10:01:22;;;;;;;2.00;1.50;;;16.10;99.90;;;;;;478373;249;28926;-81
2023/08/03 10:03:24;;;;;;;1.20;1.10;;;16.40;99.90;;;;;;478463;249;28856;-80
2023/08/03 10:05:26;;;;;;;1.20;1.10;;;16.80;99.90;;;;;;478464;245;29458;-82
2023/08/03 10:07:26;;;;;;;2.10;1.60;;;16.60;99.90;;;;;;478452;249;29415;-80
2023/08/03 10:09:28;;;;;;;1.73;1.10;;;16.50;99.90;;;;;;478559;249;29408;-83
2023/08/03 10:11:29;;;;;;;3.20;1.80;;;16.60;99.90;;;;;;478534;246;28831;-80
2023/08/03 10:13:30;;;;;;;3.90;1.37;;;16.90;99.90;;;;;;478483;249;28951;-80
2023/08/03 10:15:32;;;;;;;2.80;1.40;;;17.10;99.90;;;;;;478492;246;28878;-81
2023/08/03 10:17:32;;;;;;;2.20;1.33;;;17.40;99.90;;;;;;478509;249;28854;-81
2023/08/03 10:19:34;;;;;;;2.40;1.40;;;17.30;99.90;;;;;;478466;249;28943;-81
2023/08/03 10:21:35;;;;;;;1.60;1.30;;;17.20;99.90;;;;;;478467;249;28857;-80
2023/08/03 10:23:39;;;;;;;2.30;1.23;;;17.10;99.90;;;;;;478372;245;28878;-81
2023/08/03 10:25:37;;;;;;;2.27;1.30;;;17.10;99.90;;;;;;478016;249;28864;-83
2023/08/03 10:27:39;;;;;;;2.43;1.30;;;17.00;99.90;;;;;;478476;249;28885;-80
2023/08/03 10:29:40;;;;;;;1.43;1.30;;;17.10;99.90;;;;;;478472;245;29405;-81
2023/08/03 10:31:41;;;;;;;3.23;1.17;;;17.20;99.90;;;;;;478373;249;29605;-81
2023/08/03 10:33:42;;;;;;;1.33;1.23;;;17.20;99.90;;;;;;478433;249;29434;-79